createdAt,value
2018-04-22T00:00:02.195Z,31.36
2018-04-22T00:01:02.210Z,30.98
2018-04-22T00:02:02.228Z,30.98
2018-04-22T00:03:02.238Z,30.98
2018-04-22T00:04:02.255Z,31.45
2018-04-22T00:05:02.267Z,31.55
2018-04-22T00:06:02.286Z,31.36
2018-04-22T00:07:02.299Z,30.88
2018-04-22T00:08:02.312Z,31.26
2018-04-22T00:09:02.325Z,31.16
2018-04-22T00:10:02.345Z,31.07
2018-04-22T00:11:02.358Z,30.98
2018-04-22T00:12:02.373Z,30.88
2018-04-22T00:13:02.388Z,30.79
2018-04-22T00:14:02.433Z,30.79
2018-04-22T00:15:02.420Z,30.60
2018-04-22T00:16:02.433Z,30.50
2018-04-22T00:17:02.448Z,30.31
2018-04-22T00:18:02.465Z,30.21
2018-04-22T00:19:02.476Z,30.21
2018-04-22T00:20:02.496Z,30.31
2018-04-22T00:21:02.505Z,30.21
2018-04-22T00:22:02.527Z,30.40
2018-04-22T00:23:02.533Z,30.60
2018-04-22T00:24:02.549Z,30.79
2018-04-22T00:25:02.566Z,30.69
2018-04-22T00:26:02.584Z,30.88
2018-04-22T00:27:02.594Z,30.60
2018-04-22T00:28:02.609Z,30.79
2018-04-22T00:29:02.625Z,30.96
2018-04-22T00:30:02.640Z,31.26
2018-04-22T00:31:02.658Z,31.07
2018-04-22T00:32:02.669Z,31.44
2018-04-22T00:33:02.682Z,31.53
2018-04-22T00:34:02.698Z,31.34
2018-04-22T00:35:02.714Z,31.92
2018-04-22T00:36:02.728Z,32.01
2018-04-22T00:37:02.742Z,32.01
2018-04-22T00:38:02.757Z,32.39
2018-04-22T00:39:02.772Z,32.48
2018-04-22T00:40:02.789Z,32.20
2018-04-22T00:41:02.802Z,32.01
2018-04-22T00:42:02.820Z,31.82
2018-04-22T00:43:02.831Z,31.63
2018-04-22T00:44:02.846Z,31.44
2018-04-22T00:45:02.861Z,31.15
2018-04-22T00:46:02.876Z,31.63
2018-04-22T00:47:02.892Z,31.44
2018-04-22T00:48:02.905Z,31.82
2018-04-22T00:49:02.925Z,31.63
2018-04-22T00:50:02.938Z,31.92
2018-04-22T00:51:02.949Z,31.82
2018-04-22T00:52:02.966Z,31.92
2018-04-22T00:53:02.980Z,31.63
2018-04-22T00:54:02.995Z,32.01
2018-04-22T00:55:03.009Z,31.63
2018-04-22T00:56:03.025Z,31.53
2018-04-22T00:57:03.040Z,31.82
2018-04-22T00:58:03.056Z,31.92
2018-04-22T00:59:03.068Z,32.01
2018-04-22T01:00:03.086Z,31.72
2018-04-22T01:01:03.100Z,31.82
2018-04-22T01:02:03.117Z,32.01
2018-04-22T01:03:03.129Z,32.10
2018-04-22T01:04:03.143Z,32.68
2018-04-22T01:05:03.158Z,32.96
2018-04-22T01:06:03.173Z,33.63
2018-04-22T01:07:03.188Z,33.82
2018-04-22T01:08:03.207Z,33.82
2018-04-22T01:09:03.219Z,33.72
2018-04-22T01:10:03.232Z,33.63
2018-04-22T01:11:03.248Z,34.11
2018-04-22T01:12:03.263Z,33.82
2018-04-22T01:13:03.277Z,33.70
2018-04-22T01:14:03.294Z,33.90
2018-04-22T01:15:03.308Z,33.80
2018-04-22T01:16:03.319Z,34.09
2018-04-22T01:17:03.343Z,34.28
2018-04-22T01:18:03.353Z,34.66
2018-04-22T01:19:03.366Z,34.94
2018-04-22T01:20:03.393Z,35.04
2018-04-22T01:21:03.393Z,35.13
2018-04-22T01:22:03.410Z,35.80
2018-04-22T01:23:03.430Z,35.80
2018-04-22T01:24:03.441Z,35.89
2018-04-22T01:25:03.456Z,36.18
2018-04-22T01:26:03.470Z,36.47
2018-04-22T01:27:03.485Z,36.08
2018-04-22T01:28:03.500Z,35.97
2018-04-22T01:29:03.514Z,36.08
2018-04-22T01:30:03.531Z,35.89
2018-04-22T01:31:03.543Z,35.61
2018-04-22T01:32:03.559Z,35.52
2018-04-22T01:33:03.572Z,35.52
2018-04-22T01:34:03.586Z,35.61
2018-04-22T01:35:03.602Z,35.71
2018-04-22T01:36:03.615Z,35.61
2018-04-22T01:37:03.630Z,35.61
2018-04-22T01:38:03.644Z,35.61
2018-04-22T01:39:03.657Z,35.61
2018-04-22T01:40:03.673Z,35.61
2018-04-22T01:41:03.687Z,35.23
2018-04-22T01:42:03.701Z,34.75
2018-04-22T01:43:03.713Z,34.75
2018-04-22T01:44:03.730Z,34.94
2018-04-22T01:45:03.745Z,35.71
2018-04-22T01:46:03.763Z,35.89
2018-04-22T01:47:03.774Z,35.89
2018-04-22T01:48:03.786Z,35.80
2018-04-22T01:49:03.799Z,35.89
2018-04-22T01:50:03.814Z,35.80
2018-04-22T01:51:03.831Z,35.99
2018-04-22T01:52:03.843Z,35.89
2018-04-22T01:53:03.858Z,35.61
2018-04-22T01:54:03.875Z,35.71
2018-04-22T01:55:03.888Z,35.52
2018-04-22T01:56:03.899Z,35.61
2018-04-22T01:57:03.911Z,35.61
2018-04-22T01:58:03.927Z,35.80
2018-04-22T01:59:03.941Z,35.80
2018-04-22T02:00:03.956Z,35.52
2018-04-22T02:01:05.966Z,35.78
2018-04-22T02:02:03.983Z,35.89
2018-04-22T02:03:03.995Z,35.78
2018-04-22T02:04:04.010Z,36.07
2018-04-22T02:05:04.033Z,35.89
2018-04-22T02:06:04.039Z,36.08
2018-04-22T02:07:04.053Z,36.35
2018-04-22T02:08:04.068Z,36.18
2018-04-22T02:09:04.081Z,36.26
2018-04-22T02:10:04.101Z,36.57
2018-04-22T02:11:04.110Z,36.26
2018-04-22T02:12:04.122Z,36.45
2018-04-22T02:13:04.137Z,36.83
2018-04-22T02:14:04.152Z,36.93
2018-04-22T02:15:04.166Z,36.74
2018-04-22T02:16:04.180Z,36.74
2018-04-22T02:17:04.192Z,37.12
2018-04-22T02:18:04.208Z,37.21
2018-04-22T02:19:04.220Z,37.02
2018-04-22T02:20:04.234Z,37.12
2018-04-22T02:21:04.249Z,37.12
2018-04-22T02:22:04.264Z,36.93
2018-04-22T02:23:04.276Z,36.93
2018-04-22T02:24:04.290Z,37.02
2018-04-22T02:25:04.310Z,36.83
2018-04-22T02:26:04.319Z,37.30
2018-04-22T02:27:04.335Z,37.21
2018-04-22T02:28:04.350Z,37.21
2018-04-22T02:29:04.360Z,38.17
2018-04-22T02:30:04.375Z,37.97
2018-04-22T02:31:04.387Z,37.88
2018-04-22T02:32:04.402Z,37.88
2018-04-22T02:33:04.418Z,37.88
2018-04-22T02:34:04.430Z,37.78
2018-04-22T02:35:04.443Z,37.88
2018-04-22T02:36:04.456Z,37.21
2018-04-22T02:37:04.481Z,37.40
2018-04-22T02:38:04.483Z,37.40
2018-04-22T02:39:04.500Z,37.40
2018-04-22T02:40:04.510Z,37.69
2018-04-22T02:41:04.524Z,37.88
2018-04-22T02:42:04.537Z,38.17
2018-04-22T02:43:04.556Z,38.07
2018-04-22T02:44:04.566Z,37.88
2018-04-22T02:45:04.578Z,37.88
2018-04-22T02:46:04.592Z,38.07
2018-04-22T02:47:04.606Z,38.07
2018-04-22T02:48:04.620Z,38.07
2018-04-22T02:49:04.636Z,38.26
2018-04-22T02:50:04.647Z,37.59
2018-04-22T02:51:04.658Z,37.49
2018-04-22T02:52:04.674Z,38.17
2018-04-22T02:53:04.687Z,37.78
2018-04-22T02:54:04.702Z,37.21
2018-04-22T02:55:04.715Z,37.40
2018-04-22T02:56:04.731Z,37.30
2018-04-22T02:57:04.742Z,38.26
2018-04-22T02:58:04.761Z,37.88
2018-04-22T02:59:04.768Z,37.78
2018-04-22T03:00:04.783Z,37.97
2018-04-22T03:01:04.797Z,38.26
2018-04-22T03:02:04.809Z,38.26
2018-04-22T03:03:04.821Z,38.07
2018-04-22T03:04:04.845Z,38.45
2018-04-22T03:05:04.854Z,38.45
2018-04-22T03:06:04.863Z,38.24
2018-04-22T03:07:04.875Z,38.45
2018-04-22T03:08:04.890Z,38.26
2018-04-22T03:09:04.903Z,38.45
2018-04-22T03:10:04.918Z,38.54
2018-04-22T03:11:04.929Z,38.35
2018-04-22T03:12:04.943Z,37.97
2018-04-22T03:13:04.960Z,38.26
2018-04-22T03:14:04.971Z,38.53
2018-04-22T03:15:04.986Z,39.02
2018-04-22T03:16:04.997Z,39.00
2018-04-22T03:17:05.010Z,38.62
2018-04-22T03:18:05.025Z,38.64
2018-04-22T03:19:05.041Z,38.81
2018-04-22T03:20:05.055Z,38.92
2018-04-22T03:21:05.065Z,38.54
2018-04-22T03:22:05.077Z,39.00
2018-04-22T03:23:05.092Z,39.00
2018-04-22T03:24:05.104Z,38.81
2018-04-22T03:25:05.122Z,38.73
2018-04-22T03:26:05.132Z,39.00
2018-04-22T03:27:05.144Z,38.53
2018-04-22T03:28:05.161Z,38.53
2018-04-22T03:29:05.172Z,39.00
2018-04-22T03:30:05.186Z,38.53
2018-04-22T03:31:05.203Z,38.90
2018-04-22T03:32:05.215Z,38.90
2018-04-22T03:33:05.226Z,38.90
2018-04-22T03:34:05.241Z,39.19
2018-04-22T03:35:05.253Z,39.09
2018-04-22T03:36:05.274Z,39.09
2018-04-22T03:37:05.281Z,39.19
2018-04-22T03:38:05.294Z,38.71
2018-04-22T03:39:05.309Z,38.62
2018-04-22T03:40:05.322Z,38.62
2018-04-22T03:41:05.335Z,38.71
2018-04-22T03:42:05.347Z,38.62
2018-04-22T03:43:05.362Z,38.62
2018-04-22T03:44:05.378Z,39.09
2018-04-22T03:45:05.390Z,39.09
2018-04-22T03:46:05.405Z,38.62
2018-04-22T03:47:06.415Z,38.90
2018-04-22T03:48:05.430Z,39.19
2018-04-22T03:49:05.446Z,39.09
2018-04-22T03:50:05.459Z,38.62
2018-04-22T03:51:05.471Z,39.00
2018-04-22T03:52:05.489Z,38.71
2018-04-22T03:53:05.499Z,39.19
2018-04-22T03:54:05.513Z,39.19
2018-04-22T03:55:05.526Z,39.19
2018-04-22T03:56:05.539Z,39.19
2018-04-22T03:57:05.562Z,39.19
2018-04-22T03:58:05.569Z,39.19
2018-04-22T03:59:05.580Z,39.00
2018-04-22T04:00:05.594Z,39.09
2018-04-22T04:01:05.608Z,39.00
2018-04-22T04:02:05.620Z,39.00
2018-04-22T04:03:05.633Z,39.28
2018-04-22T04:04:05.651Z,39.19
2018-04-22T04:05:05.661Z,39.38
2018-04-22T04:06:05.674Z,39.09
2018-04-22T04:07:05.688Z,39.09
2018-04-22T04:08:05.701Z,39.09
2018-04-22T04:09:05.714Z,39.19
2018-04-22T04:10:05.728Z,39.19
2018-04-22T04:11:05.741Z,39.19
2018-04-22T04:12:05.754Z,39.09
2018-04-22T04:13:05.770Z,39.09
2018-04-22T04:14:05.782Z,39.09
2018-04-22T04:15:05.795Z,39.00
2018-04-22T04:16:05.807Z,39.09
2018-04-22T04:17:05.822Z,39.00
2018-04-22T04:18:05.836Z,38.90
2018-04-22T04:19:05.848Z,39.09
2018-04-22T04:20:05.862Z,39.19
2018-04-22T04:21:05.873Z,39.48
2018-04-22T04:22:05.890Z,39.28
2018-04-22T04:23:05.904Z,38.62
2018-04-22T04:24:05.914Z,39.00
2018-04-22T04:25:05.930Z,38.71
2018-04-22T04:26:05.945Z,38.24
2018-04-22T04:27:05.955Z,38.53
2018-04-22T04:28:05.970Z,38.71
2018-04-22T04:29:05.981Z,38.90
2018-04-22T04:30:05.996Z,39.19
2018-04-22T04:31:06.008Z,39.00
2018-04-22T04:32:06.022Z,38.14
2018-04-22T04:33:06.034Z,38.05
2018-04-22T04:34:06.055Z,39.28
2018-04-22T04:35:06.062Z,39.28
2018-04-22T04:36:06.136Z,39.09
2018-04-22T04:37:06.091Z,39.00
2018-04-22T04:38:06.105Z,38.90
2018-04-22T04:39:06.116Z,39.19
2018-04-22T04:40:06.129Z,39.00
2018-04-22T04:41:06.146Z,39.19
2018-04-22T04:42:06.158Z,39.09
2018-04-22T04:43:06.171Z,39.09
2018-04-22T04:44:06.182Z,39.57
2018-04-22T04:45:06.199Z,38.81
2018-04-22T04:46:06.215Z,38.53
2018-04-22T04:47:06.223Z,37.95
2018-04-22T04:48:06.236Z,37.95
2018-04-22T04:49:06.250Z,37.86
2018-04-22T04:50:06.266Z,37.95
2018-04-22T04:51:06.277Z,38.24
2018-04-22T04:52:06.292Z,38.43
2018-04-22T04:53:06.304Z,38.34
2018-04-22T04:54:06.319Z,38.81
2018-04-22T04:55:06.331Z,38.53
2018-04-22T04:56:06.346Z,38.53
2018-04-22T04:57:06.362Z,38.43
2018-04-22T04:58:06.373Z,38.14
2018-04-22T04:59:06.383Z,38.34
2018-04-22T05:00:06.400Z,38.71
2018-04-22T05:01:06.410Z,39.09
2018-04-22T05:02:06.427Z,37.95
2018-04-22T05:03:06.440Z,37.86
2018-04-22T05:04:06.453Z,38.05
2018-04-22T05:05:06.471Z,37.95
2018-04-22T05:06:06.482Z,37.95
2018-04-22T05:07:06.495Z,37.95
2018-04-22T05:08:06.510Z,38.14
2018-04-22T05:09:06.522Z,37.86
2018-04-22T05:10:06.535Z,37.86
2018-04-22T05:11:06.547Z,38.05
2018-04-22T05:12:06.562Z,37.95
2018-04-22T05:13:06.576Z,38.43
2018-04-22T05:14:06.590Z,38.53
2018-04-22T05:15:06.602Z,39.00
2018-04-22T05:16:06.616Z,38.24
2018-04-22T05:17:06.628Z,38.43
2018-04-22T05:18:06.650Z,39.19
2018-04-22T05:19:06.656Z,39.48
2018-04-22T05:20:06.670Z,39.38
2018-04-22T05:21:06.684Z,39.09
2018-04-22T05:22:06.698Z,39.00
2018-04-22T05:23:06.711Z,39.00
2018-04-22T05:24:06.725Z,39.09
2018-04-22T05:25:06.737Z,39.00
2018-04-22T05:26:06.757Z,38.90
2018-04-22T05:27:06.764Z,38.90
2018-04-22T05:28:06.778Z,39.38
2018-04-22T05:29:06.793Z,39.00
2018-04-22T05:30:06.806Z,39.00
2018-04-22T05:31:06.820Z,39.09
2018-04-22T05:32:06.836Z,39.28
2018-04-22T05:33:06.849Z,39.00
2018-04-22T05:34:06.860Z,39.48
2018-04-22T05:35:06.874Z,39.48
2018-04-22T05:36:06.889Z,39.67
2018-04-22T05:37:06.901Z,39.95
2018-04-22T05:38:06.915Z,39.76
2018-04-22T05:39:06.927Z,39.86
2018-04-22T05:40:06.942Z,40.05
2018-04-22T05:41:06.954Z,39.76
2018-04-22T05:42:06.970Z,39.86
2018-04-22T05:43:06.981Z,39.38
2018-04-22T05:44:06.996Z,39.67
2018-04-22T05:45:07.011Z,39.67
2018-04-22T05:46:07.022Z,38.90
2018-04-22T05:47:07.035Z,39.09
2018-04-22T05:48:07.049Z,39.67
2018-04-22T05:49:07.069Z,39.57
2018-04-22T05:50:07.078Z,39.48
2018-04-22T05:51:07.091Z,39.50
2018-04-22T05:52:07.106Z,39.48
2018-04-22T05:53:07.116Z,39.09
2018-04-22T05:54:07.130Z,39.48
2018-04-22T05:55:07.225Z,39.50
2018-04-22T05:56:07.157Z,39.40
2018-04-22T05:57:07.170Z,39.28
2018-04-22T05:58:07.185Z,39.50
2018-04-22T05:59:07.195Z,38.71
2018-04-22T06:00:07.211Z,38.17
2018-04-22T06:01:07.233Z,38.64
2018-04-22T06:02:07.240Z,38.71
2018-04-22T06:03:07.251Z,39.12
2018-04-22T06:04:07.265Z,39.12
2018-04-22T06:05:07.330Z,38.92
2018-04-22T06:06:07.290Z,39.02
2018-04-22T06:07:07.302Z,38.54
2018-04-22T06:08:07.318Z,39.02
2018-04-22T06:09:07.331Z,38.54
2018-04-22T06:10:07.343Z,39.21
2018-04-22T06:11:07.356Z,39.50
2018-04-22T06:12:07.371Z,39.21
2018-04-22T06:13:07.387Z,39.61
2018-04-22T06:14:07.400Z,40.47
2018-04-22T06:15:07.410Z,41.33
2018-04-22T06:16:07.426Z,41.71
2018-04-22T06:17:07.439Z,40.09
2018-04-22T06:18:07.453Z,38.47
2018-04-22T06:19:07.467Z,38.28
2018-04-22T06:20:07.480Z,38.47
2018-04-22T06:21:07.494Z,37.61
2018-04-22T06:22:07.510Z,38.68
2018-04-22T06:23:07.527Z,37.63
2018-04-22T06:24:07.537Z,38.20
2018-04-22T06:25:07.557Z,37.92
2018-04-22T06:26:07.562Z,37.54
2018-04-22T06:27:07.576Z,37.06
2018-04-22T06:28:07.592Z,36.96
2018-04-22T06:29:07.604Z,37.06
2018-04-22T06:30:07.617Z,37.34
2018-04-22T06:31:07.633Z,36.10
2018-04-22T06:32:07.645Z,36.87
2018-04-22T06:33:07.659Z,36.39
2018-04-22T06:34:07.672Z,37.92
2018-04-22T06:35:07.688Z,38.29
2018-04-22T06:36:07.701Z,38.10
2018-04-22T06:37:07.714Z,38.01
2018-04-22T06:38:07.727Z,36.49
2018-04-22T06:39:07.746Z,36.49
2018-04-22T06:40:07.758Z,36.01
2018-04-22T06:41:07.770Z,35.63
2018-04-22T06:42:07.784Z,36.30
2018-04-22T06:43:07.802Z,36.20
2018-04-22T06:44:07.816Z,37.54
2018-04-22T06:45:07.826Z,37.44
2018-04-22T06:46:07.900Z,37.06
2018-04-22T06:47:07.853Z,36.20
2018-04-22T06:48:07.869Z,36.41
2018-04-22T06:49:07.888Z,35.84
2018-04-22T06:50:07.896Z,37.08
2018-04-22T06:51:07.909Z,39.65
2018-04-22T06:52:07.924Z,36.98
2018-04-22T06:53:07.945Z,36.03
2018-04-22T06:54:07.963Z,35.55
2018-04-22T06:55:07.974Z,36.98
2018-04-22T06:56:07.980Z,36.79
2018-04-22T06:57:07.993Z,38.03
2018-04-22T06:58:08.011Z,37.84
2018-04-22T06:59:08.024Z,37.36
2018-04-22T07:00:08.041Z,37.08
2018-04-22T07:01:08.050Z,38.12
2018-04-22T07:02:08.065Z,39.27
2018-04-22T07:03:08.083Z,38.32
2018-04-22T07:04:08.109Z,36.90
2018-04-22T07:05:08.111Z,36.98
2018-04-22T07:06:08.129Z,37.48
2018-04-22T07:07:08.138Z,38.12
2018-04-22T07:08:08.150Z,36.98
2018-04-22T07:09:08.168Z,37.55
2018-04-22T07:10:08.182Z,37.55
2018-04-22T07:11:08.194Z,38.03
2018-04-22T07:12:08.207Z,37.55
2018-04-22T07:13:08.220Z,36.98
2018-04-22T07:14:08.237Z,36.41
2018-04-22T07:15:08.248Z,37.95
2018-04-22T07:16:08.265Z,37.19
2018-04-22T07:17:08.278Z,36.33
2018-04-22T07:18:08.295Z,35.86
2018-04-22T07:19:08.307Z,38.15
2018-04-22T07:20:08.323Z,36.43
2018-04-22T07:21:08.336Z,35.95
2018-04-22T07:22:08.351Z,36.81
2018-04-22T07:23:08.363Z,36.52
2018-04-22T07:24:08.379Z,36.43
2018-04-22T07:25:08.397Z,36.24
2018-04-22T07:26:08.407Z,36.52
2018-04-22T07:27:08.421Z,35.28
2018-04-22T07:28:08.434Z,35.57
2018-04-22T07:29:08.453Z,36.14
2018-04-22T07:30:08.464Z,36.83
2018-04-22T07:31:08.479Z,36.14
2018-04-22T07:32:08.551Z,34.71
2018-04-22T07:33:08.506Z,35.66
2018-04-22T07:34:08.522Z,36.25
2018-04-22T07:35:08.534Z,35.00
2018-04-22T07:36:08.551Z,35.30
2018-04-22T07:37:08.567Z,35.21
2018-04-22T07:38:08.579Z,36.25
2018-04-22T07:39:08.593Z,35.49
2018-04-22T07:40:08.607Z,34.82
2018-04-22T07:41:08.621Z,35.21
2018-04-22T07:42:08.643Z,35.39
2018-04-22T07:43:08.652Z,34.25
2018-04-22T07:44:08.664Z,35.87
2018-04-22T07:45:08.681Z,33.85
2018-04-22T07:46:08.695Z,35.21
2018-04-22T07:47:08.711Z,34.14
2018-04-22T07:48:08.723Z,35.59
2018-04-22T07:49:08.742Z,34.33
2018-04-22T07:50:08.752Z,36.54
2018-04-22T07:51:08.768Z,38.09
2018-04-22T07:52:08.782Z,36.46
2018-04-22T07:53:08.796Z,34.75
2018-04-22T07:54:08.815Z,35.99
2018-04-22T07:55:08.825Z,33.31
2018-04-22T07:56:08.837Z,33.31
2018-04-22T07:57:08.856Z,35.03
2018-04-22T07:58:08.871Z,33.89
2018-04-22T07:59:08.890Z,33.89
2018-04-22T08:00:08.905Z,34.67
2018-04-22T08:01:08.913Z,36.29
2018-04-22T08:02:08.932Z,35.14
2018-04-22T08:03:08.943Z,34.38
2018-04-22T08:04:08.957Z,35.05
2018-04-22T08:05:08.973Z,34.08
2018-04-22T08:06:08.989Z,35.32
2018-04-22T08:07:09.001Z,36.18
2018-04-22T08:08:09.018Z,36.85
2018-04-22T08:09:09.039Z,37.05
2018-04-22T08:10:09.048Z,36.48
2018-04-22T08:11:09.063Z,35.72
2018-04-22T08:12:09.077Z,36.00
2018-04-22T08:13:09.093Z,36.39
2018-04-22T08:14:09.113Z,35.62
2018-04-22T08:15:09.126Z,34.48
2018-04-22T08:16:09.136Z,35.05
2018-04-22T08:17:09.151Z,35.05
2018-04-22T08:18:09.169Z,34.00
2018-04-22T08:19:09.188Z,34.57
2018-04-22T08:20:09.200Z,33.71
2018-04-22T08:21:09.213Z,33.91
2018-04-22T08:22:09.228Z,35.33
2018-04-22T08:23:09.243Z,35.62
2018-04-22T08:24:09.258Z,33.04
2018-04-22T08:25:09.275Z,33.14
2018-04-22T08:26:09.290Z,32.66
2018-04-22T08:27:09.305Z,33.92
2018-04-22T08:28:09.319Z,36.12
2018-04-22T08:29:09.335Z,34.40
2018-04-22T08:30:09.352Z,33.25
2018-04-22T08:31:09.367Z,32.20
2018-04-22T08:32:09.384Z,31.24
2018-04-22T08:33:09.402Z,33.06
2018-04-22T08:34:09.414Z,32.20
2018-04-22T08:35:09.428Z,33.06
2018-04-22T08:36:09.443Z,34.30
2018-04-22T08:37:09.459Z,33.35
2018-04-22T08:38:09.478Z,34.51
2018-04-22T08:39:09.491Z,34.22
2018-04-22T08:40:09.510Z,33.94
2018-04-22T08:41:09.523Z,33.84
2018-04-22T08:42:09.543Z,33.07
2018-04-22T08:43:09.553Z,33.95
2018-04-22T08:44:09.569Z,32.81
2018-04-22T08:45:09.595Z,32.60
2018-04-22T08:46:09.603Z,32.52
2018-04-22T08:47:09.618Z,32.04
2018-04-22T08:48:09.633Z,30.41
2018-04-22T08:49:09.648Z,29.08
2018-04-22T08:50:09.665Z,30.80
2018-04-22T08:51:09.680Z,29.55
2018-04-22T08:52:09.701Z,30.03
2018-04-22T08:53:09.713Z,31.09
2018-04-22T08:54:09.729Z,30.51
2018-04-22T08:55:09.747Z,32.06
2018-04-22T08:56:09.761Z,32.15
2018-04-22T08:57:09.776Z,30.32
2018-04-22T08:58:09.796Z,31.87
2018-04-22T08:59:09.809Z,31.58
2018-04-22T09:00:09.825Z,29.08
2018-04-22T09:01:09.843Z,29.08
2018-04-22T09:02:09.883Z,30.90
2018-04-22T09:03:09.873Z,30.62
2018-04-22T09:04:09.890Z,29.08
2018-04-22T09:05:09.908Z,30.51
2018-04-22T09:06:09.923Z,29.74
2018-04-22T09:07:09.940Z,30.03
2018-04-22T09:08:09.961Z,31.18
2018-04-22T09:09:09.974Z,30.61
2018-04-22T09:10:09.992Z,29.46
2018-04-22T09:11:10.004Z,30.90
2018-04-22T09:12:10.024Z,29.46
2018-04-22T09:13:10.039Z,29.08
2018-04-22T09:14:10.060Z,29.17
2018-04-22T09:15:10.076Z,31.95
2018-04-22T09:16:10.087Z,29.94
2018-04-22T09:17:10.107Z,30.52
2018-04-22T09:18:10.119Z,30.24
2018-04-22T09:19:10.137Z,30.24
2018-04-22T09:20:10.155Z,29.08
2018-04-22T09:21:10.171Z,29.16
2018-04-22T09:22:10.187Z,27.82
2018-04-22T09:23:10.203Z,30.69
2018-04-22T09:24:10.224Z,31.35
2018-04-22T09:25:10.237Z,29.83
2018-04-22T09:26:10.257Z,30.80
2018-04-22T09:27:10.270Z,30.80
2018-04-22T09:28:10.290Z,30.03
2018-04-22T09:29:10.313Z,30.61
2018-04-22T09:30:10.322Z,29.46
2018-04-22T09:31:10.338Z,32.44
2018-04-22T09:32:10.358Z,29.58
2018-04-22T09:33:10.399Z,29.11
2018-04-22T09:34:10.389Z,30.26
2018-04-22T09:35:10.408Z,27.86
2018-04-22T09:36:10.422Z,27.84
2018-04-22T09:37:10.446Z,31.50
2018-04-22T09:38:10.457Z,28.70
2018-04-22T09:39:10.473Z,28.23
2018-04-22T09:40:10.489Z,29.28
2018-04-22T09:41:10.507Z,30.73
2018-04-22T09:42:10.524Z,27.84
2018-04-22T09:43:10.822Z,28.81
2018-04-22T09:44:10.563Z,27.00
2018-04-22T09:45:10.574Z,25.27
2018-04-22T09:46:10.592Z,27.39
2018-04-22T09:47:10.609Z,25.10
2018-04-22T09:48:10.627Z,28.55
2018-04-22T09:49:10.646Z,26.72
2018-04-22T09:50:10.661Z,26.82
2018-04-22T09:51:10.681Z,26.72
2018-04-22T09:52:10.704Z,28.85
2018-04-22T09:53:10.720Z,26.35
2018-04-22T09:54:10.732Z,28.56
2018-04-22T09:55:10.754Z,28.66
2018-04-22T09:56:10.770Z,25.01
2018-04-22T09:57:10.783Z,25.78
2018-04-22T09:58:10.803Z,25.49
2018-04-22T09:59:10.821Z,26.45
2018-04-22T10:00:10.843Z,26.93
2018-04-22T10:01:10.857Z,25.68
2018-04-22T10:02:10.876Z,27.70
2018-04-22T10:03:10.892Z,26.54
2018-04-22T10:04:10.911Z,25.20
2018-04-22T10:05:10.927Z,26.45
2018-04-22T10:06:10.949Z,28.27
2018-04-22T10:07:10.963Z,26.83
2018-04-22T10:08:10.985Z,26.83
2018-04-22T10:09:11.001Z,25.49
2018-04-22T10:10:11.021Z,26.07
2018-04-22T10:11:11.040Z,27.59
2018-04-22T10:12:11.057Z,25.77
2018-04-22T10:13:11.077Z,29.69
2018-04-22T10:14:11.096Z,29.80
2018-04-22T10:15:11.117Z,29.82
2018-04-22T10:16:11.130Z,28.96
2018-04-22T10:17:11.150Z,28.67
2018-04-22T10:18:11.168Z,29.35
2018-04-22T10:19:11.192Z,27.82
2018-04-22T10:20:11.205Z,25.52
2018-04-22T10:21:11.221Z,25.97
2018-04-22T10:22:11.242Z,27.30
2018-04-22T10:23:11.259Z,30.19
2018-04-22T10:24:11.278Z,28.48
2018-04-22T10:25:11.297Z,26.85
2018-04-22T10:26:11.315Z,27.92
2018-04-22T10:27:11.333Z,28.11
2018-04-22T10:28:11.353Z,26.19
2018-04-22T10:29:11.368Z,24.56
2018-04-22T10:30:11.391Z,25.43
2018-04-22T10:31:11.407Z,23.90
2018-04-22T10:32:11.428Z,24.85
2018-04-22T10:33:11.447Z,25.81
2018-04-22T10:34:11.467Z,26.09
2018-04-22T10:35:11.482Z,26.38
2018-04-22T10:36:11.517Z,26.86
2018-04-22T10:37:11.521Z,25.42
2018-04-22T10:38:11.541Z,25.04
2018-04-22T10:39:11.558Z,26.86
2018-04-22T10:40:11.600Z,25.34
2018-04-22T10:41:11.599Z,25.53
2018-04-22T10:42:11.617Z,25.05
2018-04-22T10:43:11.634Z,28.23
2018-04-22T10:44:11.654Z,27.94
2018-04-22T10:45:11.678Z,26.98
2018-04-22T10:46:11.701Z,26.90
2018-04-22T10:47:11.714Z,25.92
2018-04-22T10:48:11.734Z,26.28
2018-04-22T10:49:11.763Z,27.34
2018-04-22T10:50:11.771Z,26.75
2018-04-22T10:51:11.790Z,26.64
2018-04-22T10:52:11.810Z,27.79
2018-04-22T10:53:11.829Z,27.79
2018-04-22T10:54:11.849Z,28.85
2018-04-22T10:55:11.916Z,29.53
2018-04-22T10:56:11.889Z,28.88
2018-04-22T10:57:11.906Z,27.36
2018-04-22T10:58:11.931Z,28.12
2018-04-22T10:59:11.977Z,25.82
2018-04-22T11:00:11.964Z,27.75
2018-04-22T11:01:11.986Z,25.52
2018-04-22T11:02:12.004Z,26.38
2018-04-22T11:03:12.023Z,26.48
2018-04-22T11:04:12.046Z,27.44
2018-04-22T11:05:12.063Z,27.44
2018-04-22T11:06:12.082Z,28.79
2018-04-22T11:07:12.101Z,27.66
2018-04-22T11:08:12.119Z,26.10
2018-04-22T11:09:12.140Z,27.82
2018-04-22T11:10:12.162Z,27.34
2018-04-22T11:11:12.180Z,27.44
2018-04-22T11:12:12.198Z,27.63
2018-04-22T11:13:12.218Z,27.44
2018-04-22T11:14:12.238Z,26.19
2018-04-22T11:15:12.276Z,30.25
2018-04-22T11:16:12.278Z,27.84
2018-04-22T11:17:12.299Z,25.32
2018-04-22T11:18:12.317Z,27.55
2018-04-22T11:19:12.334Z,27.92
2018-04-22T11:20:12.356Z,26.86
2018-04-22T11:21:12.377Z,26.75
2018-04-22T11:22:12.394Z,28.11
2018-04-22T11:23:12.413Z,28.00
2018-04-22T11:24:12.436Z,26.46
2018-04-22T11:25:12.453Z,28.68
2018-04-22T11:26:12.471Z,27.73
2018-04-22T11:27:12.492Z,25.92
2018-04-22T11:28:12.511Z,25.53
2018-04-22T11:29:12.532Z,25.62
2018-04-22T11:30:12.551Z,29.00
2018-04-22T11:31:12.568Z,29.03
2018-04-22T11:32:12.588Z,24.58
2018-04-22T11:33:12.609Z,25.24
2018-04-22T11:34:12.633Z,25.93
2018-04-22T11:35:12.648Z,26.70
2018-04-22T11:36:12.672Z,25.34
2018-04-22T11:37:12.690Z,26.89
2018-04-22T11:38:12.709Z,26.70
2018-04-22T11:39:12.727Z,25.93
2018-04-22T11:40:12.747Z,25.05
2018-04-22T11:41:12.769Z,25.43
2018-04-22T11:42:12.789Z,25.83
2018-04-22T11:43:12.811Z,25.93
2018-04-22T11:44:12.827Z,26.28
2018-04-22T11:45:12.852Z,28.03
2018-04-22T11:46:12.868Z,27.94
2018-04-22T11:47:12.886Z,26.31
2018-04-22T11:48:12.907Z,26.98
2018-04-22T11:49:12.926Z,25.84
2018-04-22T11:50:12.952Z,25.45
2018-04-22T11:51:12.967Z,26.31
2018-04-22T11:52:12.988Z,24.96
2018-04-22T11:53:13.009Z,25.06
2018-04-22T11:54:13.031Z,25.94
2018-04-22T11:55:13.047Z,24.68
2018-04-22T11:56:13.073Z,25.36
2018-04-22T11:57:13.090Z,24.58
2018-04-22T11:58:13.111Z,27.00
2018-04-22T11:59:13.129Z,24.76
2018-04-22T12:00:13.153Z,26.79
2018-04-22T12:01:13.173Z,25.54
2018-04-22T12:02:13.191Z,25.65
2018-04-22T12:03:13.211Z,26.34
2018-04-22T12:04:13.232Z,25.48
2018-04-22T12:05:13.253Z,23.44
2018-04-22T12:06:13.275Z,25.36
2018-04-22T12:07:13.292Z,25.27
2018-04-22T12:08:13.314Z,25.27
2018-04-22T12:09:13.339Z,24.87
2018-04-22T12:10:13.356Z,24.40
2018-04-22T12:11:13.379Z,24.60
2018-04-22T12:12:13.396Z,24.68
2018-04-22T12:13:13.419Z,23.80
2018-04-22T12:14:13.439Z,24.46
2018-04-22T12:15:13.471Z,25.04
2018-04-22T12:16:13.479Z,24.38
2018-04-22T12:17:13.501Z,25.06
2018-04-22T12:18:13.521Z,27.67
2018-04-22T12:19:13.544Z,24.50
2018-04-22T12:20:13.563Z,23.80
2018-04-22T12:21:13.586Z,24.39
2018-04-22T12:22:13.601Z,23.05
2018-04-22T12:23:13.621Z,23.62
2018-04-22T12:24:13.642Z,24.69
2018-04-22T12:25:13.666Z,23.62
2018-04-22T12:26:13.686Z,23.03
2018-04-22T12:27:13.703Z,22.74
2018-04-22T12:28:13.725Z,23.69
2018-04-22T12:29:13.748Z,24.85
2018-04-22T12:30:13.767Z,24.28
2018-04-22T12:31:13.786Z,25.54
2018-04-22T12:32:13.805Z,23.14
2018-04-22T12:33:13.825Z,23.72
2018-04-22T12:34:13.849Z,23.82
2018-04-22T12:35:13.863Z,25.65
2018-04-22T12:36:13.890Z,22.85
2018-04-22T12:37:13.905Z,23.33
2018-04-22T12:38:13.929Z,23.33
2018-04-22T12:39:13.947Z,24.60
2018-04-22T12:40:13.967Z,25.57
2018-04-22T12:41:13.986Z,24.22
2018-04-22T12:42:14.008Z,24.13
2018-04-22T12:43:14.026Z,24.23
2018-04-22T12:44:14.048Z,24.52
2018-04-22T12:45:14.073Z,22.12
2018-04-22T12:46:14.088Z,22.08
2018-04-22T12:47:14.110Z,23.43
2018-04-22T12:48:14.131Z,23.72
2018-04-22T12:49:14.152Z,24.29
2018-04-22T12:50:14.170Z,25.84
2018-04-22T12:51:14.194Z,23.05
2018-04-22T12:52:14.211Z,23.35